Time;durP1;ratioP1;P1;durP2;ratioP2;P2;SDS_P1;SDS_P2;PMS_P1;PMS_P2;Temp;Humidity;BMP_temperature;BMP_pressure;BME280_temperature;BME280_humidity;BME280_pressure;Samples;Min_cycle;Max_cycle;Signal;HPM_P1;HPM_P2
2022/01/30 00:00:53;;;;;;;5.33;3.13;;;;;;;14.57;25.22;101651.97;4923593;29;20044;-82
2022/01/30 00:03:20;;;;;;;10.20;2.80;;;;;;;14.22;25.14;101614.22;4938424;29;20078;-82
2022/01/30 00:05:47;;;;;;;5.97;2.40;;;;;;;14.14;25.49;101610.00;4937953;29;20064;-83
2022/01/30 00:08:14;;;;;;;6.93;4.10;;;;;;;14.35;25.66;101652.19;4989400;28;20079;-74
2022/01/30 00:10:41;;;;;;;9.93;4.30;;;;;;;14.14;25.79;101628.81;4959134;29;20046;-77
2022/01/30 00:13:12;;;;;;;5.63;3.57;;;;;;;14.26;25.69;101656.69;4981439;28;20047;-73
2022/01/30 00:18:29;;;;;;;7.27;3.43;;;;;;;13.88;26.07;101614.75;4954963;29;20056;-75
2022/01/30 00:24:13;;;;;;;4.27;2.97;;;;;;;13.68;26.64;101612.72;4957929;29;20047;-75
2022/01/30 00:26:35;;;;;;;4.80;2.97;;;;;;;13.73;26.70;101628.72;4949007;29;20027;-75
2022/01/30 00:29:04;;;;;;;6.97;4.20;;;;;;;13.82;26.44;101613.03;4935319;29;20140;-76
2022/01/30 00:31:32;;;;;;;6.33;3.97;;;;;;;13.95;26.25;101640.59;4946557;28;20558;-76
2022/01/30 00:34:19;;;;;;;6.10;3.10;;;;;;;13.69;26.36;101597.56;4929508;29;20329;-74
2022/01/30 00:36:45;;;;;;;10.43;5.40;;;;;;;13.92;26.48;101624.31;4928301;29;20130;-73
2022/01/30 00:39:12;;;;;;;11.23;4.97;;;;;;;13.91;26.65;101622.63;4933100;29;20075;-74
2022/01/30 00:41:39;;;;;;;12.60;6.00;;;;;;;13.89;26.80;101626.81;4927271;29;20142;-75
2022/01/30 00:44:06;;;;;;;10.23;6.13;;;;;;;13.68;27.03;101612.72;4930212;29;20486;-76
2022/01/30 00:46:33;;;;;;;15.37;7.30;;;;;;;13.64;27.10;101605.97;4930389;29;20051;-77
2022/01/30 00:49:00;;;;;;;15.37;7.53;;;;;;;13.70;27.19;101620.84;4937122;29;20098;-76
2022/01/30 00:51:27;;;;;;;10.10;5.00;;;;;;;13.67;27.13;101619.44;4935148;29;20043;-77
2022/01/30 00:53:53;;;;;;;11.57;5.67;;;;;;;13.52;26.89;101578.13;4932764;29;20085;-81
2022/01/30 00:56:20;;;;;;;13.37;7.00;;;;;;;13.79;26.69;101609.94;4931847;29;20521;-78
2022/01/30 00:58:47;;;;;;;11.03;5.03;;;;;;;13.83;26.53;101613.88;4931489;29;20134;-77
2022/01/30 01:01:14;;;;;;;8.53;4.90;;;;;;;13.55;26.20;101539.44;4931443;29;20058;-77
2022/01/30 01:03:41;;;;;;;8.47;5.30;;;;;;;14.04;25.77;101603.53;4933860;29;20047;-75
2022/01/30 01:06:08;;;;;;;7.37;4.03;;;;;;;13.66;25.39;101501.84;4933526;29;20139;-78
2022/01/30 01:08:56;;;;;;;8.57;4.43;;;;;;;14.30;25.19;101596.81;4928535;29;20055;-76
2022/01/30 01:24:53;;;;;;;10.33;5.37;;;;;;;14.23;24.53;101585.88;4932003;29;20090;-81
2022/01/30 01:27:20;;;;;;;9.33;5.20;;;;;;;14.30;24.42;101581.94;4929829;29;20147;-81
2022/01/30 01:29:47;;;;;;;8.50;4.33;;;;;;;14.02;24.34;101538.34;4932159;29;20566;-80
2022/01/30 01:32:13;;;;;;;6.10;3.57;;;;;;;14.22;24.28;101577.69;4963612;28;20083;-79
2022/01/30 01:34:41;;;;;;;5.57;4.17;;;;;;;14.23;24.22;101582.22;4930560;29;20529;-77
2022/01/30 01:37:10;;;;;;;7.67;3.63;;;;;;;14.20;24.16;101572.38;4930696;29;20135;-76
2022/01/30 01:39:43;;;;;;;3.90;2.73;;;;;;;14.08;24.29;101559.72;4933158;29;20074;-80
2022/01/30 01:42:10;;;;;;;5.60;3.43;;;;;;;14.12;24.33;101572.06;4947441;28;20078;-80
2022/01/30 01:44:42;;;;;;;8.90;4.43;;;;;;;14.02;24.50;101569.25;4929321;29;20056;-75
2022/01/30 01:47:10;;;;;;;5.67;3.40;;;;;;;13.93;24.95;101575.44;4931839;29;20072;-74
2022/01/30 01:49:39;;;;;;;11.87;5.33;;;;;;;13.78;25.16;101571.75;4931825;29;20127;-71
2022/01/30 01:52:21;;;;;;;11.90;6.03;;;;;;;13.64;25.44;101565.81;4931377;29;20146;-69
2022/01/30 01:54:54;;;;;;;5.80;3.80;;;;;;;13.51;26.03;101573.66;4928486;29;20583;-70
2022/01/30 01:57:23;;;;;;;3.33;2.37;;;;;;;13.34;26.44;101567.41;4930571;29;20159;-71
2022/01/30 01:59:51;;;;;;;9.43;5.87;;;;;;;13.21;27.06;101585.56;4927250;29;20052;-69
2022/01/30 02:02:19;;;;;;;5.57;3.40;;;;;;;12.86;27.34;101538.56;4930863;29;20126;-82
2022/01/30 02:04:46;;;;;;;4.40;3.20;;;;;;;12.97;27.59;101573.94;4931834;29;20088;-81
2022/01/30 02:09:41;;;;;;;6.87;3.97;;;;;;;12.71;28.14;101560.88;4931689;29;20423;-76
2022/01/30 02:12:18;;;;;;;6.93;4.53;;;;;;;12.71;28.10;101561.72;4930681;29;20052;-78
2022/01/30 02:25:57;;;;;;;12.23;6.00;;;;;;;12.56;28.90;101572.81;4928740;29;20114;-77
2022/01/30 02:28:26;;;;;;;5.73;3.90;;;;;;;12.50;29.11;101568.28;4928038;29;20610;-76
2022/01/30 02:31:08;;;;;;;5.35;2.92;;;;;;;12.49;29.11;101580.63;4931849;29;20058;-76
2022/01/30 02:33:35;;;;;;;5.07;4.10;;;;;;;12.05;29.20;101511.66;4930958;29;20044;-75
2022/01/30 02:36:03;;;;;;;5.37;4.10;;;;;;;12.37;29.45;101568.75;4929987;29;20134;-75
2022/01/30 02:38:29;;;;;;;4.50;2.90;;;;;;;12.37;29.37;101568.75;4932022;29;20153;-74
2022/01/30 02:40:58;;;;;;;3.63;2.23;;;;;;;12.32;29.28;101572.38;4930557;29;20053;-73
2022/01/30 02:43:33;;;;;;;8.00;3.60;;;;;;;12.36;29.44;101562.31;4931961;29;20131;-78
2022/01/30 02:46:07;;;;;;;5.50;3.23;;;;;;;12.33;29.54;101574.88;4927427;29;20055;-75
2022/01/30 02:48:49;;;;;;;6.17;2.70;;;;;;;12.28;29.66;101565.59;4931164;29;20051;-75
2022/01/30 02:51:18;;;;;;;4.53;3.20;;;;;;;12.25;29.66;101566.16;4932216;29;20150;-79
2022/01/30 02:53:54;;;;;;;4.77;2.90;;;;;;;11.97;29.66;101519.72;4945010;28;20146;-77
2022/01/30 02:56:22;;;;;;;7.37;2.97;;;;;;;12.26;29.71;101559.41;4930536;29;20392;-76
2022/01/30 02:58:49;;;;;;;6.87;4.17;;;;;;;12.32;29.48;101559.19;4932690;29;20062;-76
2022/01/30 03:01:16;;;;;;;7.10;3.83;;;;;;;12.36;29.35;101544.66;4929673;29;20139;-77
2022/01/30 03:03:43;;;;;;;4.83;3.20;;;;;;;12.41;29.33;101558.69;4929610;29;20051;-75
2022/01/30 03:06:10;;;;;;;5.50;2.70;;;;;;;12.40;29.09;101541.03;4933432;29;20078;-74
2022/01/30 03:08:37;;;;;;;12.73;4.77;;;;;;;12.46;29.18;101551.19;4931028;29;20587;-74
2022/01/30 03:11:04;;;;;;;8.77;3.63;;;;;;;12.56;28.84;101544.81;4932760;29;20050;-74
2022/01/30 03:13:31;;;;;;;5.30;2.47;;;;;;;12.56;28.74;101544.81;4934750;29;20130;-79
2022/01/30 03:16:02;;;;;;;3.77;2.83;;;;;;;12.42;28.68;101516.41;4934516;29;20062;-79
2022/01/30 03:18:31;;;;;;;5.00;2.73;;;;;;;12.56;28.81;101540.03;4935243;29;20533;-77
2022/01/30 03:20:58;;;;;;;6.30;3.37;;;;;;;12.48;29.24;101532.16;4932209;29;20058;-77
2022/01/30 03:23:25;;;;;;;3.63;2.20;;;;;;;12.28;29.67;101538.44;4930939;29;20079;-77
2022/01/30 03:25:59;;;;;;;2.60;1.90;;;;;;;12.20;29.89;101526.88;4933960;29;20127;-77
2022/01/30 03:28:27;;;;;;;5.03;3.20;;;;;;;12.16;29.74;101525.72;4932882;29;20127;-77
2022/01/30 03:30:59;;;;;;;6.67;3.00;;;;;;;12.02;30.01;101502.94;4932758;29;20054;-77
2022/01/30 03:33:26;;;;;;;7.93;5.07;;;;;;;12.14;30.09;101520.41;4934287;29;20126;-77
2022/01/30 03:35:54;;;;;;;6.47;3.47;;;;;;;11.80;30.07;101472.22;4931825;29;20131;-75
2022/01/30 03:38:22;;;;;;;12.93;3.63;;;;;;;12.12;30.23;101510.59;4927342;29;20135;-76
2022/01/30 03:40:49;;;;;;;4.77;2.43;;;;;;;12.05;30.15;101511.66;4933255;29;20139;-76
2022/01/30 03:43:16;;;;;;;3.73;2.17;;;;;;;12.01;29.85;101510.50;4934410;29;20086;-77
2022/01/30 03:45:44;;;;;;;3.73;2.70;;;;;;;11.88;30.28;101499.75;4933520;29;20059;-78
2022/01/30 03:48:12;;;;;;;6.03;2.73;;;;;;;11.82;30.15;101492.38;4934255;29;20048;-78
2022/01/30 03:50:39;;;;;;;7.50;3.47;;;;;;;11.94;30.38;101509.88;4933514;29;20052;-78
2022/01/30 03:53:07;;;;;;;4.20;2.23;;;;;;;11.92;30.15;101497.25;4921462;29;20056;-78
2022/01/30 03:55:34;;;;;;;4.60;3.07;;;;;;;11.75;30.31;101474.97;4932524;28;20051;-78
2022/01/30 03:58:01;;;;;;;3.90;2.97;;;;;;;11.71;30.38;101471.00;4932637;29;20106;-73
2022/01/30 04:00:29;;;;;;;4.23;2.17;;;;;;;11.76;30.38;101480.31;4934580;29;20130;-74
2022/01/30 04:02:55;;;;;;;2.90;2.20;;;;;;;11.83;30.40;101502.47;4934714;29;20428;-69
2022/01/30 04:05:23;;;;;;;6.00;2.13;;;;;;;11.48;30.64;101445.06;4931240;29;20051;-68
2022/01/30 04:07:50;;;;;;;4.50;2.90;;;;;;;11.65;30.86;101486.91;4934035;29;20055;-74
2022/01/30 04:10:17;;;;;;;7.03;4.07;;;;;;;11.72;30.87;101493.13;4936248;29;20060;-72
2022/01/30 04:12:44;;;;;;;9.03;3.20;;;;;;;11.65;31.23;101495.28;4930318;29;20139;-78
2022/01/30 04:15:12;;;;;;;3.90;1.80;;;;;;;11.52;31.02;101479.81;4936325;29;20130;-76
2022/01/30 04:17:39;;;;;;;5.43;3.40;;;;;;;11.53;31.11;101491.84;4934581;29;20075;-77
2022/01/30 04:20:07;;;;;;;6.90;3.70;;;;;;;11.37;31.32;101455.28;4932765;29;20130;-75
2022/01/30 04:22:33;;;;;;;5.53;2.77;;;;;;;11.38;31.56;101489.69;4933793;29;20132;-76
2022/01/30 04:25:01;;;;;;;5.20;2.93;;;;;;;11.37;31.58;101490.81;4936380;29;20134;-77
2022/01/30 04:27:28;;;;;;;6.83;3.33;;;;;;;11.26;32.02;101491.81;4933234;29;20087;-79
2022/01/30 04:29:55;;;;;;;2.97;2.20;;;;;;;11.03;31.92;101451.84;4933678;29;20146;-77
2022/01/30 04:32:23;;;;;;;3.97;2.53;;;;;;;11.18;32.22;101484.75;4934808;29;20059;-77
2022/01/30 04:34:55;;;;;;;2.47;1.43;;;;;;;11.19;32.08;101486.44;4936073;29;20095;-78
2022/01/30 04:37:41;;;;;;;4.20;2.77;;;;;;;10.84;31.72;101394.63;4937222;29;20132;-77
2022/01/30 04:40:59;;;;;;;7.20;4.07;;;;;;;11.31;31.36;101447.13;4936055;29;20128;-79
2022/01/30 05:05:42;;;;;;;9.93;3.97;;;;;;;11.24;31.86;101483.66;4931339;29;20071;-75
2022/01/30 05:07:34;;;;;;;7.90;3.85;;;;;;;11.26;31.66;101481.47;4933326;29;20130;-75
2022/01/30 05:10:02;;;;;;;11.00;4.35;;;;;;;11.26;31.78;101475.03;4931113;29;20054;-78
2022/01/30 05:12:37;;;;;;;5.47;4.17;;;;;;;11.25;31.76;101488.19;4934313;29;20155;-77
2022/01/30 05:15:04;;;;;;;6.10;3.03;;;;;;;11.18;31.85;101478.28;4962705;28;20452;-77
2022/01/30 05:17:32;;;;;;;9.20;4.13;;;;;;;11.08;31.67;101451.09;4934777;29;20125;-79
2022/01/30 05:19:59;;;;;;;4.80;3.00;;;;;;;11.24;31.76;101488.44;4963314;28;20522;-79
2022/01/30 05:22:26;;;;;;;3.83;2.80;;;;;;;10.86;32.07;101443.53;4931821;29;20051;-80
2022/01/30 05:24:53;;;;;;;7.07;4.20;;;;;;;11.10;32.08;101474.84;4933985;29;20044;-79
2022/01/30 05:27:21;;;;;;;7.50;3.57;;;;;;;10.91;31.96;101456.75;4933275;29;20079;-78
2022/01/30 05:29:48;;;;;;;12.77;4.67;;;;;;;11.03;32.04;101479.78;4929749;29;20048;-76
2022/01/30 05:32:15;;;;;;;3.17;1.73;;;;;;;10.95;32.28;101488.66;4931264;29;20071;-75
2022/01/30 05:34:42;;;;;;;6.83;2.97;;;;;;;10.94;32.03;101467.41;4933543;29;20048;-76
2022/01/30 05:37:11;;;;;;;7.63;3.50;;;;;;;11.10;32.04;101488.81;4934765;29;20555;-77
2022/01/30 05:39:38;;;;;;;6.80;3.80;;;;;;;11.08;31.90;101495.81;4936893;29;20471;-76
2022/01/30 05:42:05;;;;;;;4.47;2.93;;;;;;;11.06;32.09;101487.66;4933237;29;20062;-77
2022/01/30 05:44:45;;;;;;;5.77;2.93;;;;;;;11.00;32.09;101487.88;4934947;29;20052;-78
2022/01/30 05:47:24;;;;;;;3.45;2.47;;;;;;;10.73;32.59;101471.03;4933394;29;20056;-78
2022/01/30 05:49:51;;;;;;;4.80;3.03;;;;;;;10.82;32.49;101491.84;4935912;29;20079;-77
2022/01/30 05:52:18;;;;;;;4.50;2.87;;;;;;;10.83;32.47;101499.09;4934145;29;20075;-77
2022/01/30 05:54:45;;;;;;;3.87;1.77;;;;;;;10.61;32.77;101476.75;4933755;29;20197;-76
2022/01/30 05:57:12;;;;;;;2.50;1.70;;;;;;;10.55;32.90;101478.63;4931617;29;20143;-78
2022/01/30 05:59:39;;;;;;;9.23;2.97;;;;;;;10.64;32.62;101496.63;4932604;29;20489;-76
2022/01/30 06:02:06;;;;;;;4.30;2.90;;;;;;;10.66;32.88;101502.78;4934275;29;20086;-77
2022/01/30 06:04:33;;;;;;;8.53;4.17;;;;;;;10.39;33.07;101473.91;4935447;29;20099;-76
2022/01/30 06:07:01;;;;;;;3.30;1.70;;;;;;;10.46;33.33;101499.72;4931675;29;20070;-77
2022/01/30 06:09:28;;;;;;;1.53;1.27;;;;;;;10.38;33.27;101491.78;4934110;29;20062;-77
2022/01/30 06:11:55;;;;;;;4.23;1.80;;;;;;;10.24;33.80;101501.56;4929202;29;20561;-80
2022/01/30 06:14:22;;;;;;;5.67;3.40;;;;;;;10.38;33.70;101506.56;4933662;29;20051;-81
2022/01/30 06:16:49;;;;;;;3.53;1.77;;;;;;;10.07;33.75;101476.47;4934091;29;20151;-81
2022/01/30 06:19:19;;;;;;;5.93;2.90;;;;;;;10.35;33.51;101521.03;4930666;29;20075;-82
2022/01/30 06:21:46;;;;;;;5.53;1.98;;;;;;;10.41;33.51;101513.59;4935856;29;20150;-76
2022/01/30 06:24:13;;;;;;;8.37;4.50;;;;;;;10.11;33.01;101464.53;4934416;29;20474;-72
2022/01/30 06:26:40;;;;;;;4.97;3.53;;;;;;;10.47;33.42;101518.16;4934525;29;20142;-72
2022/01/30 06:29:07;;;;;;;4.87;3.20;;;;;;;10.41;33.41;101505.22;4926497;29;20566;-72
2022/01/30 06:31:33;;;;;;;2.37;1.63;;;;;;;10.34;33.55;101518.53;4928393;29;20047;-73
2022/01/30 06:34:00;;;;;;;7.10;4.10;;;;;;;10.24;33.65;101512.75;4930708;29;20062;-73
2022/01/30 06:36:27;;;;;;;6.43;2.53;;;;;;;10.24;33.70;101509.94;4933984;29;20087;-72
2022/01/30 06:38:54;;;;;;;3.30;1.80;;;;;;;10.18;33.69;101501.47;4934548;29;20138;-76
2022/01/30 06:41:21;;;;;;;5.90;3.03;;;;;;;10.18;33.63;101511.81;4934102;29;20131;-76
2022/01/30 06:43:48;;;;;;;4.67;2.23;;;;;;;10.18;33.61;101501.47;4935145;29;20420;-74
2022/01/30 06:46:15;;;;;;;2.67;1.70;;;;;;;10.13;33.24;101481.88;4930545;29;20563;-74
2022/01/30 06:48:42;;;;;;;7.83;3.07;;;;;;;10.25;33.26;101494.88;4931759;29;20114;-75
2022/01/30 06:51:09;;;;;;;4.23;2.77;;;;;;;10.07;32.91;101468.94;4932611;29;20061;-74
2022/01/30 06:53:36;;;;;;;3.30;1.77;;;;;;;10.35;32.96;101500.66;4934082;29;20126;-72
2022/01/30 06:56:04;;;;;;;8.20;3.17;;;;;;;10.12;32.89;101471.81;4934133;29;20062;-70
2022/01/30 06:58:30;;;;;;;5.30;2.87;;;;;;;10.34;32.70;101515.72;4932765;29;20486;-75
2022/01/30 07:00:57;;;;;;;4.47;2.23;;;;;;;10.09;32.79;101475.13;4963093;28;20388;-80
2022/01/30 07:03:30;;;;;;;2.60;1.53;;;;;;;10.40;32.71;101518.34;4932563;29;20079;-80
2022/01/30 07:05:56;;;;;;;3.03;1.53;;;;;;;10.40;32.64;101517.50;4936243;29;20142;-83
2022/01/30 07:08:23;;;;;;;2.90;1.70;;;;;;;10.34;32.80;101513.78;4933518;29;20076;-77
2022/01/30 07:10:50;;;;;;;6.87;2.03;;;;;;;10.37;32.72;101507.69;4927598;29;20587;-70
2022/01/30 07:13:17;;;;;;;4.63;3.00;;;;;;;10.43;32.71;101517.00;4927343;29;20563;-72
2022/01/30 07:15:44;;;;;;;4.50;2.30;;;;;;;10.28;32.52;101486.03;4924966;29;20150;-71
2022/01/30 07:18:11;;;;;;;3.50;1.97;;;;;;;10.54;32.53;101526.38;4930461;29;20075;-66
2022/01/30 07:20:38;;;;;;;5.87;2.20;;;;;;;10.59;32.32;101527.25;4930317;29;20591;-64
2022/01/30 07:23:05;;;;;;;5.30;2.57;;;;;;;10.60;31.93;101537.38;4929276;29;20051;-65
2022/01/30 07:25:32;;;;;;;3.57;1.90;;;;;;;10.64;31.93;101524.56;4964186;28;20053;-65
2022/01/30 07:27:59;;;;;;;11.13;2.80;;;;;;;10.71;31.81;101524.38;4933114;29;20134;-65
2022/01/30 07:30:26;;;;;;;4.63;2.03;;;;;;;10.73;31.58;101510.13;4925802;29;20519;-66
2022/01/30 07:32:54;;;;;;;5.87;2.93;;;;;;;10.85;31.40;101528.47;4928324;29;20111;-66
2022/01/30 07:35:22;;;;;;;10.30;2.97;;;;;;;10.89;31.37;101531.59;4928834;29;20048;-65
2022/01/30 07:37:51;;;;;;;1.50;1.23;;;;;;;10.84;31.50;101531.56;4928601;29;20083;-66
2022/01/30 07:40:18;;;;;;;1.97;1.73;;;;;;;10.83;31.40;101521.47;4933560;29;20146;-66
2022/01/30 07:42:46;;;;;;;2.13;1.87;;;;;;;10.85;31.37;101527.66;4930124;29;20082;-66
2022/01/30 07:45:12;;;;;;;3.67;2.53;;;;;;;10.86;31.38;101535.75;4933675;29;20058;-66
2022/01/30 07:47:39;;;;;;;4.43;2.50;;;;;;;10.96;31.09;101537.84;4932206;29;20054;-66
2022/01/30 07:50:07;;;;;;;4.73;2.30;;;;;;;10.91;31.09;101529.41;4932988;29;20051;-65
2022/01/30 07:52:34;;;;;;;1.40;0.90;;;;;;;10.93;31.07;101538.38;4933798;29;20179;-67
2022/01/30 07:55:01;;;;;;;2.63;1.67;;;;;;;10.99;31.05;101531.75;4931133;29;20521;-65
2022/01/30 07:57:28;;;;;;;4.83;2.70;;;;;;;11.00;30.91;101533.41;4931173;29;20134;-65
2022/01/30 07:59:54;;;;;;;3.77;1.73;;;;;;;11.00;31.14;101536.22;4929075;29;20134;-66
2022/01/30 08:02:21;;;;;;;1.57;1.47;;;;;;;10.99;31.05;101540.13;4931783;29;20071;-67
2022/01/30 08:04:49;;;;;;;8.17;3.73;;;;;;;10.86;31.23;101543.28;4931398;29;20059;-66
2022/01/30 08:07:16;;;;;;;3.17;2.63;;;;;;;10.75;31.80;101555.44;4925507;29;20147;-67
2022/01/30 08:09:42;;;;;;;1.93;1.80;;;;;;;10.70;32.28;101545.06;4946915;28;20079;-72
2022/01/30 08:12:10;;;;;;;1.70;1.40;;;;;;;10.70;32.27;101545.06;4928342;29;20138;-69
2022/01/30 08:14:37;;;;;;;1.40;1.10;;;;;;;10.75;31.96;101525.56;4930657;29;20054;-85
2022/01/30 08:17:04;;;;;;;6.30;3.70;;;;;;;10.72;31.65;101491.69;4926746;29;20058;-67
2022/01/30 08:19:31;;;;;;;5.13;2.43;;;;;;;11.26;31.42;101547.75;4929336;29;20051;-71
2022/01/30 08:22:03;;;;;;;3.80;2.10;;;;;;;11.37;31.18;101549.53;4931853;29;20064;-70
2022/01/30 08:24:30;;;;;;;3.73;2.60;;;;;;;11.49;31.19;101558.66;4954811;29;20039;-68
2022/01/30 08:26:57;;;;;;;1.97;1.53;;;;;;;11.51;31.27;101556.41;4954396;29;20044;-69
2022/01/30 08:29:24;;;;;;;4.23;1.90;;;;;;;11.49;31.38;101555.84;4957604;29;20062;-69
2022/01/30 08:31:50;;;;;;;3.17;2.40;;;;;;;11.61;31.18;101566.88;4947121;29;20040;-69
2022/01/30 08:34:17;;;;;;;4.87;2.60;;;;;;;11.58;31.05;101533.84;4956263;29;20054;-69
2022/01/30 08:36:44;;;;;;;3.00;1.80;;;;;;;11.90;30.71;101575.91;4956922;28;20068;-69
2022/01/30 08:39:11;;;;;;;5.20;3.07;;;;;;;12.15;30.40;101563.25;4955421;29;20058;-69
2022/01/30 08:41:37;;;;;;;3.57;2.53;;;;;;;12.35;30.29;101574.63;4956909;29;20055;-69
2022/01/30 08:44:05;;;;;;;5.47;2.23;;;;;;;12.59;29.90;101574.25;4940453;29;20341;-69
2022/01/30 08:46:32;;;;;;;4.43;2.87;;;;;;;12.87;29.73;101576.66;4929044;29;20054;-69
2022/01/30 08:48:59;;;;;;;3.60;1.60;;;;;;;13.19;29.34;101570.09;4947353;28;20052;-69
2022/01/30 08:51:26;;;;;;;5.53;3.00;;;;;;;13.22;28.90;101550.75;4930227;29;20050;-68
2022/01/30 08:53:53;;;;;;;4.80;2.70;;;;;;;13.54;28.67;101566.66;4930338;29;20086;-68
2022/01/30 08:56:21;;;;;;;3.67;1.97;;;;;;;13.74;28.27;101574.25;4947407;28;20150;-69
2022/01/30 08:58:49;;;;;;;2.93;2.40;;;;;;;13.90;27.85;101570.38;4931873;29;20055;-69
2022/01/30 09:01:16;;;;;;;4.27;2.00;;;;;;;14.06;27.61;101576.03;4936341;29;20487;-68
2022/01/30 09:03:43;;;;;;;7.87;3.47;;;;;;;14.53;27.22;101569.28;4935145;29;20062;-67
2022/01/30 09:06:10;;;;;;;6.07;3.77;;;;;;;14.73;26.80;101543.13;4930214;29;20134;-70
2022/01/30 09:08:37;;;;;;;4.37;3.57;;;;;;;15.11;26.26;101539.66;4932823;28;20058;-70
2022/01/30 09:11:05;;;;;;;7.27;4.07;;;;;;;15.84;25.95;101569.16;4932235;29;20142;-69
2022/01/30 09:13:32;;;;;;;7.17;3.80;;;;;;;16.42;25.53;101579.72;4928048;29;20111;-70
2022/01/30 09:16:01;;;;;;;9.87;4.07;;;;;;;16.81;25.01;101580.50;4940600;29;20482;-70
2022/01/30 09:18:29;;;;;;;6.47;3.97;;;;;;;17.17;24.48;101584.94;4932117;29;20052;-71
2022/01/30 09:20:56;;;;;;;6.00;3.70;;;;;;;17.24;24.03;101577.78;4926588;29;20111;-71
2022/01/30 09:23:24;;;;;;;4.17;3.40;;;;;;;17.32;24.17;101586.72;4924287;29;20119;-70
2022/01/30 09:25:50;;;;;;;7.03;4.47;;;;;;;17.67;24.10;101586.25;4927552;29;20116;-69
2022/01/30 09:28:17;;;;;;;5.40;3.63;;;;;;;18.08;23.63;101588.50;4932272;29;20131;-78
2022/01/30 09:30:44;;;;;;;5.10;4.03;;;;;;;18.22;23.29;101575.31;4933528;29;20047;-69
2022/01/30 09:33:11;;;;;;;5.33;3.90;;;;;;;18.19;23.01;101580.72;4926001;29;20131;-67
2022/01/30 09:35:38;;;;;;;7.10;3.92;;;;;;;18.27;22.69;101576.38;4928975;29;20066;-67
2022/01/30 09:38:05;;;;;;;8.68;4.68;;;;;;;18.59;22.85;101584.84;4928584;29;20135;-67
2022/01/30 09:40:32;;;;;;;8.55;4.47;;;;;;;18.78;22.73;101564.19;4932817;29;20565;-68
2022/01/30 09:42:59;;;;;;;7.47;4.50;;;;;;;19.26;22.62;101589.31;4926065;29;20039;-67
2022/01/30 09:45:27;;;;;;;6.40;3.95;;;;;;;19.61;22.40;101588.53;4933577;29;20135;-68
2022/01/30 09:47:54;;;;;;;7.47;3.47;;;;;;;19.66;21.81;101564.97;4934056;29;20139;-68
2022/01/30 09:50:22;;;;;;;6.78;4.40;;;;;;;19.82;21.68;101585.28;4930632;29;20064;-69
2022/01/30 09:52:49;;;;;;;6.18;3.92;;;;;;;19.70;21.53;101542.50;4930250;29;20130;-69
2022/01/30 09:55:16;;;;;;;4.63;3.70;;;;;;;20.12;21.33;101587.41;4927555;29;20507;-69
2022/01/30 09:57:43;;;;;;;7.60;4.40;;;;;;;20.01;21.14;101565.28;4930146;29;20134;-69
2022/01/30 10:00:11;;;;;;;7.90;4.60;;;;;;;20.26;20.87;101583.69;4931635;29;20052;-68
2022/01/30 10:02:43;;;;;;;4.70;3.60;;;;;;;20.45;20.70;101589.19;4935953;29;20135;-69
2022/01/30 10:05:13;;;;;;;6.50;2.95;;;;;;;20.32;20.58;101583.25;4927958;29;20084;-68
2022/01/30 10:07:42;;;;;;;7.18;3.63;;;;;;;20.39;20.67;101570.59;4929300;29;20135;-68
2022/01/30 10:10:12;;;;;;;8.30;5.00;;;;;;;20.51;20.89;101585.94;4928009;29;20106;-67
2022/01/30 10:13:05;;;;;;;4.93;3.05;;;;;;;20.44;20.55;101591.16;4924568;29;20051;-69
2022/01/30 10:15:53;;;;;;;5.97;4.22;;;;;;;20.43;20.42;101574.47;4938237;28;20996;-68
2022/01/30 10:18:20;;;;;;;6.18;3.85;;;;;;;20.63;20.37;101601.53;4931525;29;20054;-68
2022/01/30 10:20:48;;;;;;;7.30;4.20;;;;;;;20.50;20.26;101594.72;4924902;29;20052;-68
2022/01/30 10:23:16;;;;;;;5.80;3.92;;;;;;;20.53;20.32;101589.25;4923125;29;20719;-67
2022/01/30 10:25:54;;;;;;;7.22;4.82;;;;;;;20.93;20.27;101597.88;4928864;29;20134;-77
2022/01/30 10:28:32;;;;;;;6.47;4.63;;;;;;;21.36;20.03;101602.09;4929201;29;20135;-73
2022/01/30 10:31:04;;;;;;;7.10;4.63;;;;;;;21.56;20.01;101589.31;4939537;29;20392;-75
2022/01/30 10:33:47;;;;;;;6.68;4.25;;;;;;;21.98;19.55;101590.53;4934742;29;20056;-78
2022/01/30 10:36:31;;;;;;;5.20;3.63;;;;;;;22.37;19.41;101575.38;4931541;28;20086;-71
2022/01/30 10:39:10;;;;;;;6.38;3.85;;;;;;;22.53;18.93;101581.41;4928232;29;20047;-71
2022/01/30 10:41:48;;;;;;;2.92;2.15;;;;;;;22.45;18.81;101591.59;4924379;29;20051;-67
2022/01/30 10:44:15;;;;;;;5.28;3.20;;;;;;;22.22;18.38;101592.94;4926453;29;20130;-69
2022/01/30 10:46:43;;;;;;;10.32;3.75;;;;;;;22.23;18.41;101563.34;4954183;28;20063;-68
2022/01/30 10:49:18;;;;;;;3.13;2.83;;;;;;;21.99;17.95;101580.88;4926400;29;20138;-68
2022/01/30 10:52:15;;;;;;;5.07;2.80;;;;;;;21.73;17.91;101580.81;4927143;29;20139;-67
2022/01/30 10:54:42;;;;;;;9.18;3.65;;;;;;;21.99;17.92;101578.84;4954563;28;20058;-67
2022/01/30 10:57:11;;;;;;;5.70;3.67;;;;;;;22.19;17.82;101582.25;4929305;29;20047;-68
2022/01/30 10:59:43;;;;;;;6.10;4.13;;;;;;;22.37;17.42;101577.38;4928759;29;20158;-67
2022/01/30 11:02:11;;;;;;;4.78;3.50;;;;;;;22.62;17.42;101581.38;4925068;29;20126;-67
2022/01/30 11:04:38;;;;;;;5.65;3.53;;;;;;;22.63;17.28;101569.66;4925273;29;20048;-68
2022/01/30 11:07:06;;;;;;;5.45;3.70;;;;;;;22.98;17.31;101586.69;4925033;29;20051;-68
2022/01/30 11:09:41;;;;;;;4.43;3.42;;;;;;;23.37;17.14;101591.19;4922318;29;20059;-68
2022/01/30 11:12:15;;;;;;;6.72;4.20;;;;;;;23.65;17.03;101593.56;4929863;29;20142;-69
2022/01/30 11:17:21;;;;;;;4.55;3.47;;;;;;;24.92;16.58;101584.66;4932270;29;20582;-68
2022/01/30 11:19:53;;;;;;;4.93;3.70;;;;;;;25.24;16.43;101587.84;4927593;29;20174;-68
2022/01/30 11:22:21;;;;;;;6.80;3.92;;;;;;;25.28;16.00;101586.78;4930683;29;20058;-68
2022/01/30 11:24:56;;;;;;;6.43;4.43;;;;;;;25.35;16.02;101585.34;4932600;29;20618;-68
2022/01/30 11:27:23;;;;;;;9.13;4.38;;;;;;;25.61;15.72;101560.09;4932429;29;20980;-68
2022/01/30 11:29:51;;;;;;;6.65;4.20;;;;;;;26.19;15.72;101577.91;4931671;29;20160;-69
2022/01/30 11:32:21;;;;;;;5.90;4.13;;;;;;;26.70;15.39;101581.06;4931061;29;20050;-68
2022/01/30 11:34:52;;;;;;;4.72;3.83;;;;;;;26.81;14.95;101584.22;4937848;29;20056;-68
2022/01/30 11:37:32;;;;;;;4.97;4.05;;;;;;;27.19;14.84;101582.00;4930906;29;20074;-69
2022/01/30 11:40:00;;;;;;;5.68;3.85;;;;;;;27.16;14.34;101572.09;4924131;29;20119;-68
2022/01/30 11:42:41;;;;;;;4.82;3.65;;;;;;;27.39;14.63;101580.88;4925361;29;20051;-67
2022/01/30 11:45:07;;;;;;;7.53;4.80;;;;;;;27.12;14.22;101585.47;4923410;29;20143;-68
2022/01/30 11:47:58;;;;;;;6.05;4.43;;;;;;;27.15;14.08;101554.06;4920815;29;20146;-67
2022/01/30 11:50:29;;;;;;;8.68;4.57;;;;;;;26.98;14.03;101570.75;4925051;29;20044;-68
2022/01/30 11:53:01;;;;;;;5.00;3.30;;;;;;;27.00;14.25;101563.44;4927084;29;20107;-67
2022/01/30 11:55:51;;;;;;;7.78;3.63;;;;;;;26.48;14.06;101569.34;4924253;29;20154;-68
2022/01/30 11:58:31;;;;;;;3.28;2.40;;;;;;;25.62;14.37;101576.06;4925532;29;20111;-67
2022/01/30 12:01:16;;;;;;;4.95;3.50;;;;;;;24.92;14.68;101569.53;4924965;29;20138;-68
2022/01/30 12:03:56;;;;;;;5.50;3.80;;;;;;;24.29;14.95;101553.34;4925297;29;20103;-67
2022/01/30 12:06:23;;;;;;;6.38;4.10;;;;;;;24.08;15.22;101569.66;4927533;29;20082;-66
2022/01/30 12:08:59;;;;;;;7.07;4.07;;;;;;;23.62;15.61;101535.25;4928043;29;20130;-67
2022/01/30 12:11:37;;;;;;;8.10;4.50;;;;;;;23.36;15.90;101552.47;4926833;29;20059;-67
2022/01/30 12:14:21;;;;;;;7.18;3.95;;;;;;;23.01;15.72;101537.56;4924592;29;20135;-67
2022/01/30 12:16:52;;;;;;;7.85;3.90;;;;;;;23.09;16.07;101550.09;4931344;29;20119;-66
2022/01/30 12:19:31;;;;;;;6.40;4.05;;;;;;;22.89;16.24;101538.25;4928787;29;20047;-67
2022/01/30 12:21:59;;;;;;;7.57;4.77;;;;;;;22.58;16.25;101521.41;4927906;29;20052;-67
2022/01/30 12:24:27;;;;;;;7.07;4.20;;;;;;;22.50;16.35;101542.22;4933168;29;20306;-66
2022/01/30 12:27:02;;;;;;;8.18;4.82;;;;;;;22.59;16.33;101527.94;4937180;29;20075;-65
2022/01/30 12:29:45;;;;;;;7.22;5.07;;;;;;;23.37;16.19;101530.50;4931437;29;20058;-66
2022/01/30 12:32:24;;;;;;;6.63;4.28;;;;;;;23.46;16.46;101519.91;4935838;29;20055;-66